Time;durP1;ratioP1;P1;durP2;ratioP2;P2;SDS_P1;SDS_P2;PMS_P1;PMS_P2;Temp;Humidity;BMP_temperature;BMP_pressure;BME280_temperature;BME280_humidity;BME280_pressure;Samples;Min_cycle;Max_cycle;Signal;HPM_P1;HPM_P2
2023/10/06 00:00:19;;;;;;;6.50;2.60;;;13.90;99.90;;;;;;4200052;28;20239;-77
2023/10/06 00:02:28;;;;;;;7.17;2.60;;;13.90;99.90;;;;;;4189017;28;20221;-81
2023/10/06 00:04:35;;;;;;;6.43;2.90;;;13.90;99.90;;;;;;4189638;28;20717;-79
2023/10/06 00:06:39;;;;;;;6.03;2.53;;;13.90;99.90;;;;;;4199244;28;20225;-78
2023/10/06 00:08:41;;;;;;;4.83;2.70;;;13.80;99.90;;;;;;4195349;28;20219;-79
2023/10/06 00:10:46;;;;;;;7.10;2.33;;;13.80;99.90;;;;;;4198362;28;20213;-78
2023/10/06 00:12:53;;;;;;;5.90;2.27;;;13.80;99.90;;;;;;4200316;28;20202;-77
2023/10/06 00:14:57;;;;;;;5.63;2.40;;;13.80;99.90;;;;;;4186758;28;20224;-79
2023/10/06 00:17:00;;;;;;;6.70;2.40;;;13.80;99.90;;;;;;4203370;28;20204;-80
2023/10/06 00:19:14;;;;;;;6.50;2.43;;;13.80;99.90;;;;;;4202575;28;20283;-80
2023/10/06 00:21:16;;;;;;;7.47;2.57;;;13.80;99.90;;;;;;4197487;28;20208;-79
2023/10/06 00:23:21;;;;;;;9.47;2.90;;;13.80;99.90;;;;;;4199874;28;20224;-78
2023/10/06 00:25:24;;;;;;;6.30;2.10;;;13.80;99.90;;;;;;4202824;28;20211;-79
2023/10/06 00:27:29;;;;;;;8.83;2.73;;;13.80;99.90;;;;;;4200354;28;20209;-79
2023/10/06 00:29:33;;;;;;;5.30;2.40;;;13.70;99.90;;;;;;4198373;28;20292;-79
2023/10/06 00:31:36;;;;;;;6.43;2.40;;;13.80;99.90;;;;;;4200856;28;20216;-80
2023/10/06 00:33:37;;;;;;;5.43;2.60;;;13.80;99.90;;;;;;4198996;28;20193;-78
2023/10/06 00:35:39;;;;;;;4.90;2.60;;;13.80;99.90;;;;;;4198504;28;20817;-77
2023/10/06 00:37:42;;;;;;;9.33;2.67;;;13.80;99.90;;;;;;4198345;28;20259;-79
2023/10/06 00:39:45;;;;;;;3.60;2.30;;;13.80;99.90;;;;;;4200959;28;20225;-78
2023/10/06 00:41:47;;;;;;;5.40;2.50;;;13.70;99.90;;;;;;4200811;28;20274;-79
2023/10/06 00:43:50;;;;;;;5.73;2.33;;;13.80;99.90;;;;;;4195848;28;20206;-78
2023/10/06 00:45:51;;;;;;;5.53;2.40;;;13.70;99.90;;;;;;4199002;28;20211;-79
2023/10/06 00:47:55;;;;;;;7.97;2.70;;;13.70;99.90;;;;;;4200369;28;20288;-78
2023/10/06 00:49:57;;;;;;;7.50;2.83;;;13.70;99.90;;;;;;4196139;28;20625;-77
2023/10/06 00:52:00;;;;;;;6.00;2.40;;;13.70;99.90;;;;;;4199854;28;20206;-79
2023/10/06 00:54:02;;;;;;;6.00;2.70;;;13.70;99.90;;;;;;4198645;28;20209;-77
2023/10/06 00:56:10;;;;;;;6.00;2.57;;;13.70;99.90;;;;;;4198471;28;20213;-80
2023/10/06 00:58:12;;;;;;;5.27;2.40;;;13.70;99.90;;;;;;4200539;28;20198;-79
2023/10/06 01:00:20;;;;;;;4.90;2.10;;;13.70;99.90;;;;;;4198172;28;20289;-82
2023/10/06 01:02:23;;;;;;;7.57;2.50;;;13.70;99.90;;;;;;4200684;28;20204;-77
2023/10/06 01:04:26;;;;;;;5.70;2.30;;;13.70;99.90;;;;;;4198148;28;20225;-80
2023/10/06 01:06:33;;;;;;;6.43;2.43;;;13.60;99.90;;;;;;4201302;28;20220;-78
2023/10/06 01:08:35;;;;;;;6.23;2.27;;;13.60;99.90;;;;;;4203408;28;20197;-78
2023/10/06 01:10:37;;;;;;;3.80;2.27;;;13.60;99.90;;;;;;4201033;28;20217;-78
2023/10/06 01:12:39;;;;;;;7.30;2.30;;;13.60;99.90;;;;;;4203923;28;20295;-78
2023/10/06 01:14:41;;;;;;;6.53;2.20;;;13.60;99.90;;;;;;4187157;28;20235;-78
2023/10/06 01:16:43;;;;;;;7.20;2.37;;;13.60;99.90;;;;;;4207078;28;20207;-80
2023/10/06 01:18:48;;;;;;;6.23;2.60;;;13.60;99.90;;;;;;4204485;28;20304;-78
2023/10/06 01:20:52;;;;;;;7.67;2.63;;;13.60;99.90;;;;;;4204218;28;20234;-77
2023/10/06 01:22:56;;;;;;;7.10;2.60;;;13.60;99.90;;;;;;4199195;28;20220;-78
2023/10/06 01:24:59;;;;;;;4.37;2.33;;;13.60;99.90;;;;;;4199058;28;20604;-77
2023/10/06 01:27:05;;;;;;;6.13;2.20;;;13.60;99.90;;;;;;4201399;28;20200;-77
2023/10/06 01:29:10;;;;;;;5.67;2.63;;;13.50;99.90;;;;;;4202024;28;20205;-83
2023/10/06 01:31:11;;;;;;;3.77;2.07;;;13.50;99.90;;;;;;4204876;28;20604;-78
2023/10/06 01:33:13;;;;;;;6.03;2.50;;;13.50;99.90;;;;;;4202813;28;20209;-79
2023/10/06 01:35:16;;;;;;;9.87;2.50;;;13.50;99.90;;;;;;4205468;28;20214;-77
2023/10/06 01:37:18;;;;;;;5.23;2.20;;;13.50;99.90;;;;;;4208801;28;20215;-78
2023/10/06 01:39:22;;;;;;;7.40;2.33;;;13.50;99.90;;;;;;4199602;28;20203;-78
2023/10/06 01:41:26;;;;;;;5.47;2.37;;;13.50;99.90;;;;;;4198760;28;20227;-77
2023/10/06 01:43:29;;;;;;;7.67;2.67;;;13.50;99.90;;;;;;4205313;28;21020;-78
2023/10/06 01:45:30;;;;;;;7.97;2.20;;;13.50;99.90;;;;;;4203876;28;20207;-81
2023/10/06 01:47:32;;;;;;;7.37;2.47;;;13.50;99.90;;;;;;4194926;28;20206;-78
2023/10/06 01:49:35;;;;;;;4.87;2.67;;;13.50;99.90;;;;;;4196502;28;20234;-78
2023/10/06 01:51:38;;;;;;;8.23;2.37;;;13.50;99.90;;;;;;4185363;28;20216;-77
2023/10/06 01:53:41;;;;;;;6.00;2.03;;;13.50;99.90;;;;;;4203664;28;20637;-81
2023/10/06 01:55:49;;;;;;;4.97;2.20;;;13.50;99.90;;;;;;4199340;28;20213;-77
2023/10/06 01:57:51;;;;;;;7.97;2.63;;;13.50;99.90;;;;;;4199161;28;20215;-79
2023/10/06 01:59:53;;;;;;;5.23;2.10;;;13.50;99.90;;;;;;4206492;28;20251;-83
2023/10/06 02:02:00;;;;;;;6.93;2.40;;;13.50;99.90;;;;;;4203193;28;20233;-82
2023/10/06 02:04:06;;;;;;;6.70;2.40;;;13.50;99.90;;;;;;4201570;28;20284;-78
2023/10/06 02:06:15;;;;;;;10.33;2.17;;;13.50;99.90;;;;;;4205434;28;20696;-83
2023/10/06 02:08:21;;;;;;;4.80;2.20;;;13.50;99.90;;;;;;4202126;28;20226;-77
2023/10/06 02:10:23;;;;;;;7.30;2.50;;;13.40;99.90;;;;;;4203454;28;20295;-78
2023/10/06 02:12:26;;;;;;;7.00;2.30;;;13.40;99.90;;;;;;4195852;28;20198;-77
2023/10/06 02:14:28;;;;;;;8.20;2.20;;;13.40;99.90;;;;;;4196817;28;20216;-82
2023/10/06 02:16:30;;;;;;;9.27;2.63;;;13.40;99.90;;;;;;4181688;28;20214;-79
2023/10/06 02:18:36;;;;;;;10.17;2.20;;;13.40;99.90;;;;;;4202437;28;21103;-78
2023/10/06 02:20:38;;;;;;;7.50;2.00;;;13.30;99.90;;;;;;4197340;28;20236;-78
2023/10/06 02:22:40;;;;;;;5.27;2.27;;;13.30;99.90;;;;;;4195800;28;20211;-77
2023/10/06 02:24:42;;;;;;;6.83;2.47;;;13.30;99.90;;;;;;4192388;28;20218;-79
2023/10/06 02:26:57;;;;;;;7.33;2.33;;;13.30;99.90;;;;;;4188428;28;20977;-78
2023/10/06 02:29:02;;;;;;;6.07;2.37;;;13.30;99.90;;;;;;4190587;28;20197;-79
2023/10/06 02:31:05;;;;;;;8.73;2.40;;;13.20;99.90;;;;;;4201603;28;20280;-81
2023/10/06 02:33:07;;;;;;;5.37;2.57;;;13.20;99.90;;;;;;4199650;28;20697;-81
2023/10/06 02:35:10;;;;;;;5.97;2.30;;;13.20;99.90;;;;;;4197730;28;20202;-79
2023/10/06 02:37:21;;;;;;;8.67;2.50;;;13.20;99.90;;;;;;4196734;28;20240;-78
2023/10/06 02:39:26;;;;;;;5.37;2.17;;;13.10;99.90;;;;;;4198832;28;20218;-77
2023/10/06 02:41:29;;;;;;;6.13;2.20;;;13.10;99.90;;;;;;4198485;28;20215;-78
2023/10/06 02:43:31;;;;;;;7.30;2.40;;;13.10;99.90;;;;;;4196841;28;20213;-78
2023/10/06 02:45:40;;;;;;;6.23;2.00;;;13.10;99.90;;;;;;4201254;28;20262;-77
2023/10/06 02:47:42;;;;;;;7.10;2.63;;;13.10;99.90;;;;;;4202253;28;20217;-78
2023/10/06 02:49:48;;;;;;;5.87;2.63;;;13.10;99.90;;;;;;4200622;28;20628;-77
2023/10/06 02:51:50;;;;;;;5.50;2.67;;;13.10;99.90;;;;;;4199603;28;20350;-77
2023/10/06 02:53:59;;;;;;;4.40;2.23;;;13.10;99.90;;;;;;4197960;28;20207;-80
2023/10/06 02:56:07;;;;;;;8.80;2.77;;;13.10;99.90;;;;;;4182789;28;20252;-80
2023/10/06 02:58:09;;;;;;;6.80;2.73;;;13.10;99.90;;;;;;4198434;28;20663;-82
2023/10/06 03:02:34;;;;;;;6.87;2.60;;;13.10;99.90;;;;;;4199147;28;20684;-79
2023/10/06 03:04:36;;;;;;;6.73;2.57;;;13.10;99.90;;;;;;4199322;28;20689;-80
2023/10/06 03:06:38;;;;;;;7.47;2.70;;;13.10;99.90;;;;;;4203071;28;20203;-78
2023/10/06 03:08:41;;;;;;;6.87;2.60;;;13.00;99.90;;;;;;4203441;28;20218;-78
2023/10/06 03:10:44;;;;;;;6.83;2.73;;;13.00;99.90;;;;;;4210446;28;20688;-77
2023/10/06 03:12:46;;;;;;;6.33;2.40;;;13.00;99.90;;;;;;4203566;28;20273;-80
2023/10/06 03:14:48;;;;;;;8.00;3.53;;;13.00;99.90;;;;;;4206359;28;20700;-81
2023/10/06 03:16:51;;;;;;;5.53;2.67;;;13.00;99.90;;;;;;4207186;28;20201;-78
2023/10/06 03:18:54;;;;;;;6.77;2.60;;;12.90;99.90;;;;;;4192870;28;20203;-77
2023/10/06 03:21:01;;;;;;;6.60;2.33;;;12.90;99.90;;;;;;4196235;28;20607;-79
2023/10/06 03:23:13;;;;;;;7.90;2.57;;;12.90;99.90;;;;;;4204528;28;20201;-78
2023/10/06 03:25:16;;;;;;;8.10;2.20;;;12.90;99.90;;;;;;4201123;28;20237;-79
2023/10/06 03:27:18;;;;;;;9.03;2.60;;;12.90;99.90;;;;;;4205645;28;20244;-79
2023/10/06 03:29:29;;;;;;;7.37;2.50;;;12.80;99.90;;;;;;4197340;28;20217;-78
2023/10/06 03:31:44;;;;;;;5.40;2.40;;;12.80;99.90;;;;;;4196587;28;20690;-78
2023/10/06 03:33:46;;;;;;;4.57;2.10;;;12.80;99.90;;;;;;4202333;28;20203;-77
2023/10/06 03:35:50;;;;;;;6.60;2.40;;;12.80;99.90;;;;;;4202386;28;20222;-78
2023/10/06 03:38:08;;;;;;;6.40;2.50;;;12.70;99.90;;;;;;4195192;28;20213;-77
2023/10/06 03:40:21;;;;;;;7.80;2.30;;;12.70;99.90;;;;;;4202243;28;20262;-78
2023/10/06 03:42:27;;;;;;;11.17;2.97;;;12.70;99.90;;;;;;4198956;28;20278;-77
2023/10/06 03:44:30;;;;;;;7.60;2.67;;;12.60;99.90;;;;;;4201452;28;20237;-78
2023/10/06 03:46:37;;;;;;;5.53;2.10;;;12.60;99.90;;;;;;4201389;28;20213;-78
2023/10/06 03:48:39;;;;;;;10.73;2.80;;;12.70;99.90;;;;;;4203836;28;20200;-77
2023/10/06 03:50:43;;;;;;;5.00;2.37;;;12.60;99.90;;;;;;4202054;28;20214;-77
2023/10/06 03:52:47;;;;;;;5.37;2.37;;;12.60;99.90;;;;;;4203569;28;20684;-78
2023/10/06 03:54:50;;;;;;;8.47;3.50;;;12.60;99.90;;;;;;4199927;28;20205;-80
2023/10/06 03:56:52;;;;;;;10.07;2.63;;;12.50;99.90;;;;;;4203199;28;20287;-79
2023/10/06 03:58:54;;;;;;;6.90;2.70;;;12.50;99.90;;;;;;4204831;28;20250;-79
2023/10/06 04:00:55;;;;;;;7.70;3.03;;;12.40;99.90;;;;;;4207685;28;20229;-79
2023/10/06 04:02:58;;;;;;;12.07;2.23;;;12.40;99.90;;;;;;4204869;28;20205;-80
2023/10/06 04:05:05;;;;;;;7.53;2.27;;;12.40;99.90;;;;;;4208050;28;20205;-79
2023/10/06 04:07:07;;;;;;;7.73;2.60;;;12.40;99.90;;;;;;4198200;28;20210;-80
2023/10/06 04:09:11;;;;;;;4.90;2.40;;;12.40;99.90;;;;;;4195059;28;20221;-78
2023/10/06 04:11:14;;;;;;;6.80;2.53;;;12.40;99.90;;;;;;4195629;28;20217;-79
2023/10/06 04:13:17;;;;;;;6.90;2.77;;;12.40;99.90;;;;;;4207949;28;20226;-79
2023/10/06 04:15:23;;;;;;;6.50;2.70;;;12.40;99.90;;;;;;4205506;28;20213;-79
2023/10/06 04:17:26;;;;;;;5.10;2.10;;;12.40;99.90;;;;;;4203449;28;20272;-79
2023/10/06 04:19:29;;;;;;;6.33;2.57;;;12.30;99.90;;;;;;4206068;28;20557;-79
2023/10/06 04:21:31;;;;;;;6.40;2.50;;;12.40;99.90;;;;;;4206085;28;20233;-78
2023/10/06 04:23:33;;;;;;;4.90;2.43;;;12.30;99.90;;;;;;4206113;28;20235;-79
2023/10/06 04:25:37;;;;;;;5.57;2.53;;;12.30;99.90;;;;;;4204422;28;20217;-79
2023/10/06 04:27:39;;;;;;;7.80;2.63;;;12.30;99.90;;;;;;4206818;28;20210;-78
2023/10/06 04:29:44;;;;;;;6.40;2.50;;;12.30;99.90;;;;;;4203691;28;20315;-79
2023/10/06 04:31:47;;;;;;;7.17;2.73;;;12.30;99.90;;;;;;4201322;28;20775;-79
2023/10/06 04:33:50;;;;;;;4.93;2.67;;;12.30;99.90;;;;;;4196900;28;20635;-79
2023/10/06 04:35:53;;;;;;;4.53;2.50;;;12.20;99.90;;;;;;4199140;28;20236;-80
2023/10/06 04:37:55;;;;;;;10.80;3.07;;;12.30;99.90;;;;;;4200452;28;20876;-80
2023/10/06 04:39:57;;;;;;;9.40;3.00;;;12.30;99.90;;;;;;4198558;28;20323;-80
2023/10/06 04:42:00;;;;;;;6.60;2.57;;;12.30;99.90;;;;;;4199653;28;20217;-80
2023/10/06 04:44:02;;;;;;;9.00;3.00;;;12.30;99.90;;;;;;4184664;28;20237;-79
2023/10/06 04:46:05;;;;;;;4.20;2.70;;;12.30;99.90;;;;;;4200965;28;20202;-79
2023/10/06 04:48:08;;;;;;;7.13;3.30;;;12.30;99.90;;;;;;4203180;28;20203;-80
2023/10/06 04:50:09;;;;;;;6.03;2.60;;;12.30;99.90;;;;;;4186398;28;20234;-81
2023/10/06 04:52:13;;;;;;;7.03;2.80;;;12.30;99.90;;;;;;4183146;28;20215;-81
2023/10/06 04:54:15;;;;;;;4.60;2.60;;;12.30;99.90;;;;;;4192953;28;20259;-82
2023/10/06 04:56:16;;;;;;;8.03;2.70;;;12.30;99.90;;;;;;4202117;28;20204;-81
2023/10/06 04:58:20;;;;;;;5.33;2.70;;;12.30;99.90;;;;;;4196019;28;20669;-79
2023/10/06 05:00:22;;;;;;;5.80;3.00;;;12.30;99.90;;;;;;4198750;28;20221;-79
2023/10/06 05:02:24;;;;;;;8.53;4.20;;;12.30;99.90;;;;;;4198266;28;20244;-79
2023/10/06 05:04:26;;;;;;;11.47;4.13;;;12.30;99.90;;;;;;4201759;28;20228;-80
2023/10/06 05:06:28;;;;;;;11.80;5.70;;;12.20;99.90;;;;;;4201541;28;20240;-80
2023/10/06 05:08:29;;;;;;;8.17;3.73;;;12.30;99.90;;;;;;4206762;28;20279;-80
2023/10/06 05:10:31;;;;;;;6.60;3.13;;;12.20;99.90;;;;;;4202283;28;20626;-78
2023/10/06 05:12:33;;;;;;;8.80;3.10;;;12.20;99.90;;;;;;4200921;28;20236;-81
2023/10/06 05:14:37;;;;;;;9.43;3.40;;;12.20;99.90;;;;;;4201985;28;20210;-79
2023/10/06 05:16:41;;;;;;;6.07;2.77;;;12.20;99.90;;;;;;4198696;28;20241;-80
2023/10/06 05:18:44;;;;;;;7.03;3.17;;;12.20;99.90;;;;;;4198843;28;20205;-79
2023/10/06 05:20:46;;;;;;;6.17;2.77;;;12.20;99.90;;;;;;4201388;28;20261;-81
2023/10/06 05:22:48;;;;;;;7.80;2.90;;;12.20;99.90;;;;;;4197845;28;20194;-79
2023/10/06 05:24:51;;;;;;;9.73;3.43;;;12.20;99.90;;;;;;4198328;28;20264;-78
2023/10/06 05:26:53;;;;;;;10.27;3.20;;;12.20;99.90;;;;;;4192181;28;20218;-79
2023/10/06 05:28:54;;;;;;;7.87;3.03;;;12.30;99.90;;;;;;4200105;28;20256;-80
2023/10/06 05:30:58;;;;;;;7.80;3.03;;;12.30;99.90;;;;;;4201638;28;20667;-79
2023/10/06 05:32:59;;;;;;;7.80;3.13;;;12.30;99.90;;;;;;4199983;28;20297;-79
2023/10/06 05:35:04;;;;;;;12.23;3.63;;;12.30;99.90;;;;;;4201948;28;20236;-80
2023/10/06 05:37:08;;;;;;;9.20;3.13;;;12.30;99.90;;;;;;4205726;28;20217;-79
2023/10/06 05:39:11;;;;;;;10.27;3.30;;;12.30;99.90;;;;;;4200085;28;20214;-80
2023/10/06 05:41:15;;;;;;;9.33;3.80;;;12.30;99.90;;;;;;4187393;28;20217;-79
2023/10/06 05:43:16;;;;;;;10.30;3.77;;;12.30;99.90;;;;;;4201794;28;20199;-79
2023/10/06 05:45:19;;;;;;;10.97;3.53;;;12.40;99.90;;;;;;4203105;28;20240;-78
2023/10/06 05:47:23;;;;;;;13.63;3.97;;;12.40;99.90;;;;;;4205747;28;20206;-79
2023/10/06 05:49:32;;;;;;;8.37;3.07;;;12.40;99.90;;;;;;4201766;28;20213;-78
2023/10/06 05:51:38;;;;;;;10.90;3.47;;;12.40;99.90;;;;;;4201642;28;20806;-79
2023/10/06 05:53:43;;;;;;;9.37;3.80;;;12.40;99.90;;;;;;4200604;28;20232;-80
2023/10/06 05:55:49;;;;;;;10.17;3.60;;;12.40;99.90;;;;;;4207326;28;20267;-80
2023/10/06 05:57:52;;;;;;;8.67;3.40;;;12.50;99.90;;;;;;4206918;28;20738;-79
2023/10/06 05:59:55;;;;;;;9.57;3.60;;;12.50;99.90;;;;;;4204765;28;20298;-79
2023/10/06 06:02:00;;;;;;;11.50;3.50;;;12.50;99.90;;;;;;4206063;28;20231;-79
2023/10/06 06:04:09;;;;;;;8.17;3.17;;;12.50;99.90;;;;;;4200401;28;20206;-79
2023/10/06 06:06:10;;;;;;;5.77;3.60;;;12.50;99.90;;;;;;4196001;28;20224;-79
2023/10/06 06:08:12;;;;;;;7.50;3.37;;;12.50;99.90;;;;;;4201973;28;20217;-79
2023/10/06 06:10:14;;;;;;;11.83;3.80;;;12.50;99.90;;;;;;4202062;28;20279;-79
2023/10/06 06:12:21;;;;;;;7.97;3.20;;;12.50;99.90;;;;;;4204235;28;20699;-80
2023/10/06 06:14:23;;;;;;;8.60;3.40;;;12.50;99.90;;;;;;4185754;28;20214;-79
2023/10/06 06:16:25;;;;;;;10.77;3.47;;;12.50;99.90;;;;;;4203651;28;20557;-79
2023/10/06 06:18:27;;;;;;;9.23;3.60;;;12.50;99.90;;;;;;4206066;28;20224;-79
2023/10/06 06:20:31;;;;;;;10.07;3.80;;;12.40;99.90;;;;;;4203230;28;20249;-79
2023/10/06 06:22:36;;;;;;;11.07;5.43;;;12.40;99.90;;;;;;4198873;28;20293;-79
2023/10/06 06:24:43;;;;;;;7.73;4.07;;;12.40;99.90;;;;;;4199208;28;20213;-80
2023/10/06 06:26:49;;;;;;;7.43;4.00;;;12.40;99.90;;;;;;4207249;28;20236;-81
2023/10/06 06:28:52;;;;;;;11.50;3.30;;;12.40;99.90;;;;;;4196013;28;20219;-80
2023/10/06 06:31:03;;;;;;;8.00;3.50;;;12.40;99.90;;;;;;4192034;28;20266;-79
2023/10/06 06:33:07;;;;;;;6.43;2.87;;;12.40;99.90;;;;;;4200707;28;20229;-78
2023/10/06 06:35:13;;;;;;;10.20;4.33;;;12.40;99.90;;;;;;4191509;28;20288;-82
2023/10/06 06:37:17;;;;;;;7.80;3.40;;;12.40;99.90;;;;;;4205245;28;20293;-82
2023/10/06 06:39:18;;;;;;;13.37;4.10;;;12.40;99.90;;;;;;4207450;28;20214;-82
2023/10/06 06:41:21;;;;;;;12.60;4.20;;;12.40;99.90;;;;;;4211656;28;20253;-81
2023/10/06 06:43:23;;;;;;;12.60;3.63;;;12.40;99.90;;;;;;4210651;28;20206;-80
2023/10/06 06:45:25;;;;;;;12.63;3.67;;;12.50;99.90;;;;;;4195787;28;20876;-79
2023/10/06 06:47:30;;;;;;;7.23;3.53;;;12.40;99.90;;;;;;4212338;28;20213;-78
2023/10/06 06:49:32;;;;;;;10.60;3.57;;;12.40;99.90;;;;;;4207768;28;20240;-80
2023/10/06 06:51:35;;;;;;;11.00;5.30;;;12.40;99.90;;;;;;4201154;28;20986;-80
2023/10/06 06:53:39;;;;;;;12.10;4.10;;;12.50;99.90;;;;;;4201707;28;20210;-81
2023/10/06 06:55:41;;;;;;;11.10;4.10;;;12.50;99.90;;;;;;4200594;28;20197;-81
2023/10/06 06:57:44;;;;;;;7.67;3.67;;;12.90;99.90;;;;;;4193983;28;20739;-80
2023/10/06 06:59:46;;;;;;;9.40;3.50;;;12.50;99.90;;;;;;4193328;28;20229;-80
2023/10/06 07:01:48;;;;;;;10.10;3.73;;;12.60;99.90;;;;;;4192143;28;20280;-80
2023/10/06 07:03:51;;;;;;;9.90;3.67;;;12.60;99.90;;;;;;4199364;28;21567;-80
2023/10/06 07:05:54;;;;;;;12.47;4.30;;;12.60;99.90;;;;;;4202143;28;20223;-81
2023/10/06 07:07:56;;;;;;;9.20;3.60;;;12.70;99.90;;;;;;4197897;28;20194;-79
2023/10/06 07:10:06;;;;;;;7.30;3.57;;;12.70;99.90;;;;;;4191725;28;20925;-80
2023/10/06 07:12:08;;;;;;;13.87;4.03;;;12.70;99.90;;;;;;4181133;28;20201;-79
2023/10/06 07:14:13;;;;;;;14.53;4.27;;;12.70;99.90;;;;;;4202342;28;20281;-81
2023/10/06 07:16:15;;;;;;;11.30;3.23;;;12.70;99.90;;;;;;4201285;28;20707;-80
2023/10/06 07:18:19;;;;;;;8.87;3.00;;;12.70;99.90;;;;;;4207340;28;20209;-80
2023/10/06 07:20:26;;;;;;;13.60;3.50;;;12.70;99.90;;;;;;4202105;28;20226;-78
2023/10/06 07:22:31;;;;;;;8.80;3.50;;;12.70;99.90;;;;;;4202514;28;20218;-80
2023/10/06 07:24:33;;;;;;;9.13;3.53;;;12.80;99.90;;;;;;4202289;28;20286;-79
2023/10/06 07:26:38;;;;;;;6.93;3.57;;;12.80;99.90;;;;;;4204381;28;20230;-79
2023/10/06 07:28:41;;;;;;;9.10;3.50;;;12.90;99.90;;;;;;4203449;28;20206;-80
2023/10/06 07:30:43;;;;;;;7.10;3.00;;;12.90;99.90;;;;;;4203849;28;20250;-80
2023/10/06 07:32:46;;;;;;;8.93;3.50;;;12.90;99.90;;;;;;4205037;28;20233;-82
2023/10/06 07:34:50;;;;;;;12.77;4.03;;;13.00;99.90;;;;;;4201390;28;20206;-81
2023/10/06 07:36:56;;;;;;;7.17;3.00;;;13.00;99.90;;;;;;4205454;28;20202;-80
2023/10/06 07:39:08;;;;;;;8.60;3.37;;;13.00;99.90;;;;;;4204268;28;20234;-80
2023/10/06 07:41:18;;;;;;;8.20;3.37;;;13.00;99.90;;;;;;4208003;28;20244;-81
2023/10/06 07:43:23;;;;;;;10.03;3.20;;;13.00;99.90;;;;;;4208882;28;20252;-82
2023/10/06 07:45:26;;;;;;;8.40;3.30;;;13.00;99.90;;;;;;4205598;28;20213;-79
2023/10/06 07:47:32;;;;;;;11.70;3.27;;;13.10;99.90;;;;;;4191451;28;20265;-81
2023/10/06 07:49:35;;;;;;;14.13;4.37;;;13.10;99.90;;;;;;4210898;28;20231;-79
2023/10/06 07:51:38;;;;;;;7.07;3.17;;;13.20;99.90;;;;;;4208472;28;20239;-78
2023/10/06 07:53:45;;;;;;;8.37;2.73;;;13.20;99.90;;;;;;4208480;28;20229;-79
2023/10/06 07:55:47;;;;;;;8.27;3.47;;;13.20;99.90;;;;;;4206883;28;20206;-81
2023/10/06 07:57:54;;;;;;;7.80;3.30;;;13.30;99.90;;;;;;4190471;28;20209;-81
2023/10/06 07:59:59;;;;;;;8.53;3.10;;;13.30;99.90;;;;;;4210366;28;20231;-80
2023/10/06 08:02:03;;;;;;;7.90;3.03;;;13.40;99.90;;;;;;4207271;28;20703;-80
2023/10/06 08:04:05;;;;;;;8.73;3.60;;;13.50;99.90;;;;;;4210892;28;20219;-80
2023/10/06 08:06:07;;;;;;;7.13;2.80;;;13.50;99.90;;;;;;4208655;28;20209;-80
2023/10/06 08:08:09;;;;;;;11.87;3.40;;;13.60;99.90;;;;;;4202932;28;20594;-79
2023/10/06 08:10:14;;;;;;;14.90;3.63;;;13.60;99.90;;;;;;4195777;28;20284;-80
2023/10/06 08:12:17;;;;;;;7.60;3.10;;;13.70;99.90;;;;;;4206930;28;20228;-84
2023/10/06 08:14:24;;;;;;;8.83;2.80;;;13.80;99.90;;;;;;4209350;28;20199;-82
2023/10/06 08:16:30;;;;;;;7.47;3.10;;;13.80;99.90;;;;;;4206549;28;20200;-80
2023/10/06 08:18:32;;;;;;;8.37;2.87;;;13.80;99.90;;;;;;4208488;28;20200;-79
2023/10/06 08:20:35;;;;;;;8.00;3.07;;;13.80;99.90;;;;;;4206149;28;20226;-82
2023/10/06 08:22:37;;;;;;;6.70;2.50;;;13.90;99.90;;;;;;4210085;28;20215;-81
2023/10/06 08:24:38;;;;;;;7.93;2.57;;;14.00;99.90;;;;;;4205915;28;20594;-79
2023/10/06 08:26:41;;;;;;;9.73;3.40;;;14.00;99.90;;;;;;4211926;28;20214;-83
2023/10/06 08:28:43;;;;;;;6.63;2.80;;;14.10;99.90;;;;;;4208049;28;20207;-81
2023/10/06 08:30:45;;;;;;;11.63;3.23;;;14.10;99.90;;;;;;4201712;28;20236;-80
2023/10/06 08:32:52;;;;;;;8.57;3.23;;;14.20;99.90;;;;;;4198501;28;20211;-81
2023/10/06 08:34:54;;;;;;;8.53;3.17;;;14.30;99.90;;;;;;4207128;28;20582;-81
2023/10/06 08:36:56;;;;;;;9.43;3.40;;;14.40;99.90;;;;;;4201702;28;20200;-80
2023/10/06 08:38:58;;;;;;;10.67;2.87;;;14.40;99.90;;;;;;4202200;28;20891;-80
2023/10/06 08:41:02;;;;;;;8.77;2.90;;;14.50;99.90;;;;;;4205045;28;20764;-81
2023/10/06 08:43:08;;;;;;;6.70;2.93;;;14.70;99.90;;;;;;4200222;28;20227;-80
2023/10/06 08:45:11;;;;;;;7.33;3.10;;;14.80;99.90;;;;;;4207740;28;20910;-81
2023/10/06 08:47:15;;;;;;;9.47;3.23;;;14.90;99.90;;;;;;4206733;28;20198;-80
2023/10/06 08:49:19;;;;;;;7.80;3.57;;;15.00;99.90;;;;;;4206185;28;20206;-79
2023/10/06 08:51:25;;;;;;;7.50;3.50;;;15.10;99.90;;;;;;4206071;28;20861;-79
2023/10/06 08:53:29;;;;;;;6.37;2.93;;;15.10;99.90;;;;;;4206152;28;20569;-79
2023/10/06 08:55:31;;;;;;;6.20;2.90;;;15.20;99.90;;;;;;4199869;28;20271;-78
2023/10/06 08:57:33;;;;;;;9.27;3.37;;;15.20;99.90;;;;;;4197408;28;20210;-79
2023/10/06 08:59:35;;;;;;;14.77;3.40;;;15.30;99.90;;;;;;4194321;28;20268;-79
2023/10/06 09:01:38;;;;;;;5.60;2.70;;;15.40;99.90;;;;;;4202038;28;20202;-79
2023/10/06 09:03:42;;;;;;;9.77;3.10;;;15.40;99.90;;;;;;4211085;28;20252;-79
2023/10/06 09:05:46;;;;;;;6.47;2.90;;;15.50;99.90;;;;;;4200465;28;20212;-80
2023/10/06 09:08:04;;;;;;;9.43;3.10;;;15.50;99.90;;;;;;4211073;28;20240;-80
2023/10/06 09:10:17;;;;;;;11.70;3.27;;;15.60;99.90;;;;;;4207234;28;20233;-82
2023/10/06 09:12:27;;;;;;;7.40;2.90;;;15.70;99.90;;;;;;4204929;28;20245;-80
2023/10/06 09:14:29;;;;;;;10.17;3.10;;;15.70;99.90;;;;;;4208132;28;20594;-80
2023/10/06 09:16:48;;;;;;;5.73;2.70;;;15.80;99.90;;;;;;4206101;28;20213;-80
2023/10/06 09:19:01;;;;;;;6.17;2.93;;;15.90;99.90;;;;;;4203047;28;20570;-80
2023/10/06 09:21:15;;;;;;;9.47;2.90;;;16.00;99.90;;;;;;4202205;28;20218;-80
2023/10/06 09:23:31;;;;;;;8.80;3.23;;;16.10;99.90;;;;;;4201397;28;20215;-80
2023/10/06 09:25:45;;;;;;;6.67;2.80;;;16.20;99.90;;;;;;4204530;28;20705;-80
2023/10/06 09:27:48;;;;;;;6.73;2.67;;;16.40;99.90;;;;;;4206162;28;20257;-80
2023/10/06 09:29:59;;;;;;;8.50;3.03;;;16.40;99.90;;;;;;4195875;28;20309;-80
2023/10/06 09:32:04;;;;;;;6.83;2.63;;;16.40;99.90;;;;;;4196493;28;20236;-80
2023/10/06 09:34:10;;;;;;;6.97;2.77;;;16.40;99.90;;;;;;4205700;28;20200;-81
2023/10/06 09:36:17;;;;;;;7.07;2.57;;;16.40;99.90;;;;;;4194170;28;20267;-79
2023/10/06 09:38:21;;;;;;;6.33;2.53;;;16.40;99.90;;;;;;4195441;28;20229;-79
2023/10/06 09:40:22;;;;;;;9.13;2.90;;;16.50;99.90;;;;;;4205040;28;20231;-80
2023/10/06 09:42:28;;;;;;;10.10;3.10;;;16.50;99.90;;;;;;4197430;28;20606;-81
2023/10/06 09:44:33;;;;;;;5.43;2.63;;;16.50;99.90;;;;;;4200126;28;20228;-79
2023/10/06 09:46:36;;;;;;;7.83;2.70;;;16.60;99.90;;;;;;4204029;28;20244;-79
2023/10/06 09:48:40;;;;;;;6.53;2.57;;;16.60;99.90;;;;;;4199742;28;20261;-80
2023/10/06 09:50:43;;;;;;;8.87;2.80;;;16.80;99.90;;;;;;4196102;28;20256;-79
2023/10/06 09:52:48;;;;;;;7.43;2.77;;;16.80;99.90;;;;;;4210223;28;20203;-79
2023/10/06 09:54:50;;;;;;;8.60;2.77;;;16.80;99.90;;;;;;4208968;28;20206;-80
2023/10/06 09:56:55;;;;;;;5.30;2.20;;;16.90;99.90;;;;;;4187948;28;20323;-80
2023/10/06 09:58:59;;;;;;;7.30;2.40;;;16.90;99.90;;;;;;4202359;28;20208;-81
2023/10/06 10:01:03;;;;;;;5.70;2.40;;;16.90;99.90;;;;;;4203317;28;20229;-80
2023/10/06 10:03:06;;;;;;;7.60;2.50;;;17.00;99.90;;;;;;4202275;28;20226;-79
2023/10/06 10:05:10;;;;;;;6.10;2.20;;;17.10;99.90;;;;;;4199395;28;20212;-80
2023/10/06 10:07:13;;;;;;;7.30;2.03;;;17.10;99.90;;;;;;4201932;28;20207;-80
2023/10/06 10:09:16;;;;;;;5.33;2.00;;;17.30;99.90;;;;;;4206174;28;20208;-79
2023/10/06 10:11:29;;;;;;;4.87;2.03;;;17.40;99.90;;;;;;4204434;28;20212;-80
2023/10/06 10:13:44;;;;;;;6.17;2.60;;;17.50;99.90;;;;;;4201394;28;20212;-80
2023/10/06 10:16:01;;;;;;;7.57;2.30;;;17.60;99.90;;;;;;4207709;28;20769;-80
2023/10/06 10:18:13;;;;;;;6.03;2.37;;;17.60;99.90;;;;;;4203717;28;20200;-81
2023/10/06 10:20:16;;;;;;;10.43;2.40;;;17.60;99.90;;;;;;4201621;28;20237;-80
2023/10/06 10:22:21;;;;;;;7.53;2.20;;;17.60;99.90;;;;;;4183991;28;20207;-77
2023/10/06 10:24:26;;;;;;;8.00;2.00;;;17.60;99.90;;;;;;4207027;28;20226;-79
2023/10/06 10:26:29;;;;;;;3.63;2.00;;;17.60;99.90;;;;;;4205593;28;20200;-81
2023/10/06 10:28:31;;;;;;;7.30;2.00;;;17.60;99.90;;;;;;4209489;28;20204;-82
2023/10/06 10:30:49;;;;;;;6.57;2.20;;;17.60;99.90;;;;;;4210099;28;20253;-81
2023/10/06 10:32:55;;;;;;;6.00;2.10;;;17.70;99.90;;;;;;4212575;28;20196;-81
2023/10/06 10:35:08;;;;;;;8.73;2.10;;;17.80;99.90;;;;;;4211590;28;20290;-82
2023/10/06 10:37:17;;;;;;;5.57;2.07;;;17.80;99.90;;;;;;4205737;28;20201;-76
2023/10/06 10:39:19;;;;;;;6.50;1.90;;;17.90;99.90;;;;;;4202064;28;20212;-80
2023/10/06 10:41:26;;;;;;;6.07;2.43;;;17.90;99.90;;;;;;4199495;28;20220;-81
2023/10/06 10:43:28;;;;;;;4.63;1.83;;;17.90;99.90;;;;;;4201512;28;20229;-80
2023/10/06 10:45:34;;;;;;;5.53;1.97;;;18.00;99.90;;;;;;4203975;28;20271;-81
2023/10/06 10:47:38;;;;;;;4.40;1.77;;;18.00;99.90;;;;;;4201880;28;20271;-78